createdAt,value
2019-04-24T00:01:41.877Z,36.40
2019-04-24T00:04:16.713Z,36.50
2019-04-24T00:06:38.529Z,36.50
2019-04-24T00:08:58.954Z,36.40
2019-04-24T00:11:37.977Z,36.50
2019-04-24T00:14:15.426Z,36.50
2019-04-24T00:16:22.526Z,36.50
2019-04-24T00:21:20.066Z,36.50
2019-04-24T00:23:50.769Z,36.50
2019-04-24T00:26:17.276Z,36.50
2019-04-24T00:28:38.370Z,36.40
2019-04-24T00:31:05.877Z,36.50
2019-04-24T00:36:11.695Z,36.50
2019-04-24T00:38:20.836Z,36.50
2019-04-24T00:40:53.818Z,36.50
2019-04-24T00:43:31.986Z,36.50
2019-04-24T00:48:06.043Z,36.50
2019-04-24T00:50:30.192Z,36.50
2019-04-24T00:53:33.355Z,36.50
2019-04-24T00:55:19.633Z,36.50
2019-04-24T00:57:46.676Z,36.50
2019-04-24T01:00:02.847Z,36.60
2019-04-24T01:02:32.805Z,36.60
2019-04-24T01:07:37.977Z,36.60
2019-04-24T01:10:11.806Z,36.60
2019-04-24T01:12:38.552Z,36.50
2019-04-24T01:14:59.192Z,36.50
2019-04-24T01:19:49.603Z,36.60
2019-04-24T01:22:19.437Z,36.60
2019-04-24T01:24:43.226Z,36.60
2019-04-24T01:26:58.373Z,36.70
2019-04-24T01:31:58.150Z,36.50
2019-04-24T01:34:24.779Z,36.60
2019-04-24T01:39:23.211Z,36.50
2019-04-24T01:41:33.639Z,36.50
2019-04-24T01:44:03.234Z,36.50
2019-04-24T01:46:26.781Z,36.50
2019-04-24T01:53:44.693Z,36.60
2019-04-24T01:58:42.480Z,36.60
2019-04-24T02:03:36.414Z,36.60
2019-04-24T02:06:11.655Z,36.60
2019-04-24T02:08:34.065Z,36.60
2019-04-24T02:10:57.760Z,36.60
2019-04-24T02:15:47.906Z,36.60
2019-04-24T02:18:23.594Z,36.60
2019-04-24T02:20:44.377Z,36.50
2019-04-24T02:23:10.654Z,36.60
2019-04-24T02:28:21.044Z,36.50
2019-04-24T02:33:35.196Z,36.60
2019-04-24T02:35:36.938Z,36.50
2019-04-24T02:37:54.687Z,36.50
2019-04-24T02:40:23.905Z,36.60
2019-04-24T02:45:18.502Z,36.60
2019-04-24T02:57:24.389Z,36.60
2019-04-24T02:59:53.442Z,36.60
2019-04-24T03:02:37.028Z,36.60
2019-04-24T03:07:24.069Z,36.60
2019-04-24T03:09:39.906Z,36.60
2019-04-24T03:12:38.816Z,36.60
2019-04-24T03:14:37.389Z,36.60
2019-04-24T03:17:17.812Z,36.50
2019-04-24T03:21:51.620Z,36.60
2019-04-24T03:24:15.108Z,36.60
2019-04-24T03:26:59.841Z,36.50
2019-04-24T03:29:29.861Z,36.60
2019-04-24T03:51:50.251Z,36.60
2019-04-24T03:53:57.713Z,36.60
2019-04-24T04:05:29.284Z,36.60
2019-04-24T04:08:29.700Z,36.70
2019-04-24T04:10:27.747Z,36.60
2019-04-24T04:25:11.822Z,36.60
2019-04-24T04:29:57.574Z,36.70
2019-04-24T04:32:40.237Z,36.60
2019-04-24T04:39:48.717Z,36.60
2019-04-24T04:44:48.168Z,36.70
2019-04-24T04:47:12.073Z,36.70
2019-04-24T04:49:51.077Z,36.70
2019-04-24T04:55:01.845Z,36.80
2019-04-24T04:56:53.115Z,36.80
2019-04-24T05:01:49.704Z,36.70
2019-04-24T05:06:39.917Z,36.80
2019-04-24T05:11:34.253Z,36.70
2019-04-24T05:14:06.912Z,36.80
2019-04-24T05:16:34.333Z,36.80
2019-04-24T05:19:06.960Z,36.80
2019-04-24T05:21:05.524Z,36.80
2019-04-24T05:23:53.271Z,36.80
2019-04-24T05:28:36.992Z,36.80
2019-04-24T05:30:44.042Z,36.80
2019-04-24T05:38:04.236Z,36.80
2019-04-24T05:40:44.059Z,36.80
2019-04-24T05:43:06.751Z,36.90
2019-04-24T05:45:41.884Z,36.90
2019-04-24T05:47:57.490Z,36.80
2019-04-24T05:50:26.599Z,36.80
2019-04-24T05:53:07.011Z,37.60
2019-04-24T05:55:26.885Z,37.00
2019-04-24T05:57:57.066Z,37.00
2019-04-24T06:00:10.134Z,37.00
2019-04-24T06:07:37.286Z,37.10
2019-04-24T06:09:52.237Z,37.10
2019-04-24T06:12:17.671Z,37.00
2019-04-24T06:14:43.208Z,37.10
2019-04-24T06:22:22.464Z,37.10
2019-04-24T06:24:30.125Z,36.70
2019-04-24T06:29:34.236Z,37.10
2019-04-24T06:34:28.646Z,37.20
2019-04-24T06:39:16.580Z,37.20
2019-04-24T06:46:31.445Z,37.30
2019-04-24T06:48:48.717Z,37.20
2019-04-24T06:51:18.599Z,37.50
2019-04-24T06:54:08.436Z,37.30
2019-04-24T06:58:40.495Z,37.30
2019-04-24T07:03:49.114Z,37.50
2019-04-24T07:08:10.330Z,37.50
2019-04-24T07:13:35.951Z,37.70
2019-04-24T07:18:17.026Z,37.60
2019-04-24T07:20:50.952Z,37.70
2019-04-24T07:22:59.458Z,37.80
2019-04-24T07:25:49.399Z,37.80
2019-04-24T07:27:57.628Z,37.80
2019-04-24T07:30:39.869Z,37.80
2019-04-24T07:32:50.719Z,37.80
2019-04-24T07:35:19.838Z,37.80
2019-04-24T07:42:19.447Z,37.90
2019-04-24T07:47:22.887Z,37.80
2019-04-24T07:49:46.505Z,37.80
2019-04-24T08:02:19.032Z,37.80
2019-04-24T08:04:37.185Z,38.00
2019-04-24T08:06:55.964Z,38.00
2019-04-24T08:09:41.265Z,38.10
2019-04-24T08:11:53.744Z,38.10
2019-04-24T08:14:11.142Z,38.10
2019-04-24T08:16:34.496Z,38.20
2019-04-24T08:19:06.839Z,38.10
2019-04-24T08:21:26.005Z,38.20
2019-04-24T08:23:52.824Z,38.20
2019-04-24T08:26:16.966Z,38.30
2019-04-24T08:28:52.090Z,38.40
2019-04-24T08:31:22.670Z,38.40
2019-04-24T08:36:06.440Z,38.30
2019-04-24T08:38:42.871Z,38.40
2019-04-24T08:41:02.737Z,38.50
2019-04-24T08:45:44.967Z,38.40
2019-04-24T08:51:07.471Z,38.40
2019-04-24T08:53:31.663Z,38.40
2019-04-24T09:00:38.373Z,38.40
2019-04-24T09:03:07.757Z,38.40
2019-04-24T09:05:13.850Z,38.40
2019-04-24T09:08:06.470Z,38.40
2019-04-24T09:10:41.084Z,38.40
2019-04-24T09:12:58.442Z,38.50
2019-04-24T09:14:59.427Z,38.40
2019-04-24T09:17:30.984Z,38.50
2019-04-24T09:20:08.072Z,38.40
2019-04-24T09:25:07.678Z,38.40
2019-04-24T09:27:28.937Z,38.40
2019-04-24T09:34:35.987Z,38.40
2019-04-24T09:37:19.795Z,39.10
2019-04-24T09:39:31.149Z,38.50
2019-04-24T09:42:16.795Z,38.50
2019-04-24T09:44:46.647Z,38.40
2019-04-24T09:46:53.358Z,38.40
2019-04-24T09:49:07.062Z,38.50
2019-04-24T09:56:37.932Z,38.40
2019-04-24T09:59:06.325Z,38.50
2019-04-24T10:01:38.131Z,38.70
2019-04-24T10:04:03.095Z,38.50
2019-04-24T10:08:50.173Z,38.50
2019-04-24T10:11:22.037Z,38.50
2019-04-24T10:16:11.103Z,38.60
2019-04-24T10:18:48.380Z,38.50
2019-04-24T10:20:48.154Z,38.60
2019-04-24T10:23:13.158Z,38.60
2019-04-24T10:25:40.465Z,38.50
2019-04-24T10:28:15.978Z,38.60
2019-04-24T10:30:47.409Z,38.80
2019-04-24T10:33:05.440Z,38.60
2019-04-24T10:42:52.055Z,38.80
2019-04-24T10:48:01.718Z,38.70
2019-04-24T10:52:41.658Z,38.70
2019-04-24T11:05:04.355Z,38.80
2019-04-24T11:07:33.390Z,38.80
2019-04-24T11:10:00.854Z,39.00
2019-04-24T11:12:11.040Z,38.80
2019-04-24T11:14:31.334Z,38.90
2019-04-24T11:19:41.959Z,38.80
2019-04-24T11:21:56.744Z,38.90
2019-04-24T11:26:58.726Z,38.90
2019-04-24T11:29:07.606Z,38.80
2019-04-24T11:36:34.350Z,39.00
2019-04-24T11:39:12.416Z,39.00
2019-04-24T11:41:24.053Z,38.90
2019-04-24T11:44:03.893Z,39.00
2019-04-24T11:46:43.852Z,39.00
2019-04-24T11:48:47.970Z,39.10
2019-04-24T11:51:29.395Z,39.10
2019-04-24T11:53:23.545Z,39.00
2019-04-24T11:56:01.934Z,39.00
2019-04-24T11:58:29.534Z,39.10
2019-04-24T12:00:49.841Z,39.10
2019-04-24T12:03:15.284Z,39.00
2019-04-24T12:08:43.782Z,39.20
2019-04-24T12:10:46.015Z,39.10
2019-04-24T12:13:10.389Z,39.20
2019-04-24T12:15:43.204Z,39.10
2019-04-24T12:18:20.112Z,39.00
2019-04-24T12:20:25.080Z,39.10
2019-04-24T12:22:53.675Z,39.10
2019-04-24T12:25:30.938Z,39.10
2019-04-24T12:30:13.150Z,39.10
2019-04-24T12:32:36.910Z,39.10
2019-04-24T12:34:58.990Z,39.20
2019-04-24T12:37:29.750Z,39.00
2019-04-24T12:39:55.919Z,39.00
2019-04-24T12:42:38.919Z,39.00
2019-04-24T12:49:48.375Z,39.00
2019-04-24T12:52:00.312Z,39.00
2019-04-24T12:54:41.569Z,39.00
2019-04-24T13:01:58.487Z,39.00
2019-04-24T13:06:38.513Z,39.00
2019-04-24T13:09:15.922Z,39.10
2019-04-24T13:11:47.952Z,39.00
2019-04-24T13:14:13.537Z,38.90
2019-04-24T13:16:50.003Z,38.90
2019-04-24T13:21:01.951Z,39.00
2019-04-24T13:23:40.117Z,39.00
2019-04-24T13:26:14.212Z,38.90
2019-04-24T13:28:58.501Z,38.90
2019-04-24T13:31:15.546Z,39.00
2019-04-24T13:36:11.000Z,38.90
2019-04-24T13:38:39.476Z,38.90
2019-04-24T13:45:59.966Z,38.90
2019-04-24T13:50:44.740Z,38.80
2019-04-24T13:53:26.105Z,38.70
2019-04-24T13:55:36.935Z,38.70
2019-04-24T13:58:08.059Z,38.70
2019-04-24T14:00:30.997Z,38.80
2019-04-24T14:03:17.353Z,38.70
2019-04-24T14:05:14.807Z,38.70
2019-04-24T14:08:04.160Z,38.70
2019-04-24T14:10:36.768Z,38.80
2019-04-24T14:17:35.027Z,38.70
2019-04-24T14:20:37.988Z,38.70
2019-04-24T14:22:20.042Z,38.70
2019-04-24T14:25:04.082Z,38.70
2019-04-24T14:27:17.246Z,38.70
2019-04-24T14:29:42.543Z,38.70
2019-04-24T14:32:08.308Z,38.70
2019-04-24T14:37:03.477Z,38.60
2019-04-24T14:42:03.619Z,38.50
2019-04-24T14:44:33.611Z,38.50
2019-04-24T14:46:57.279Z,38.50
2019-04-24T14:49:21.080Z,38.40
2019-04-24T14:51:40.527Z,38.50
2019-04-24T14:56:30.533Z,38.40
2019-04-24T14:59:02.920Z,38.50
2019-04-24T15:01:29.353Z,38.40
2019-04-24T15:03:57.181Z,38.50
2019-04-24T15:08:44.947Z,38.40
2019-04-24T15:11:06.286Z,38.40
2019-04-24T15:16:31.883Z,38.40
2019-04-24T15:18:27.799Z,38.40
2019-04-24T15:21:03.724Z,38.30
2019-04-24T15:23:35.136Z,38.30
2019-04-24T15:26:02.526Z,38.30
2019-04-24T15:28:20.403Z,38.40
2019-04-24T15:30:43.964Z,38.30
2019-04-24T15:33:12.025Z,38.30
2019-04-24T15:35:42.338Z,38.30
2019-04-24T15:38:02.573Z,38.40
2019-04-24T15:45:37.047Z,38.40
2019-04-24T15:50:18.440Z,38.40
2019-04-24T15:52:11.505Z,38.30
2019-04-24T15:54:37.694Z,38.30
2019-04-24T15:57:03.846Z,38.30
2019-04-24T15:59:52.256Z,38.30
2019-04-24T16:02:32.572Z,38.20
2019-04-24T16:06:48.660Z,38.20
2019-04-24T16:09:14.836Z,38.10
2019-04-24T16:11:41.013Z,38.20
2019-04-24T16:14:24.655Z,38.20
2019-04-24T16:17:05.841Z,38.20
2019-04-24T16:19:32.410Z,38.10
2019-04-24T16:21:52.904Z,38.20
2019-04-24T16:32:02.543Z,38.00
2019-04-24T16:34:15.025Z,38.80
2019-04-24T16:36:44.660Z,38.00
2019-04-24T16:41:33.688Z,38.10
2019-04-24T16:44:04.276Z,38.00
2019-04-24T16:48:37.488Z,38.00
2019-04-24T16:51:03.778Z,38.00
2019-04-24T16:53:36.653Z,38.00
2019-04-24T16:55:55.373Z,38.00
2019-04-24T16:58:42.188Z,38.00
2019-04-24T17:01:22.765Z,38.00
2019-04-24T17:06:11.252Z,38.10
2019-04-24T17:08:25.679Z,38.00
2019-04-24T17:10:52.803Z,38.10
2019-04-24T17:15:36.279Z,38.20
2019-04-24T17:18:01.377Z,38.20
2019-04-24T17:20:23.631Z,38.30
2019-04-24T17:23:18.080Z,38.30
2019-04-24T17:32:36.847Z,38.50
2019-04-24T17:37:01.827Z,38.50
2019-04-24T17:39:26.954Z,38.60
2019-04-24T17:41:58.340Z,38.60
2019-04-24T17:44:50.120Z,38.70
2019-04-24T17:47:18.701Z,38.70
2019-04-24T17:49:58.287Z,38.70
2019-04-24T17:52:16.390Z,38.70
2019-04-24T17:54:31.383Z,38.80
2019-04-24T17:57:09.439Z,38.80
2019-04-24T17:58:57.298Z,38.90
2019-04-24T18:01:23.467Z,40.80
2019-04-24T18:03:51.799Z,40.30
2019-04-24T18:06:15.874Z,39.50
2019-04-24T18:08:42.048Z,39.40
2019-04-24T18:11:09.107Z,39.40
2019-04-24T18:13:35.208Z,39.40
2019-04-24T18:16:03.022Z,39.50
2019-04-24T18:18:27.577Z,40.80
2019-04-24T18:20:53.756Z,41.80
2019-04-24T18:23:19.928Z,40.50
2019-04-24T18:25:46.093Z,39.80
2019-04-24T18:28:12.895Z,39.80
2019-04-24T18:30:38.482Z,39.80
2019-04-24T18:33:05.405Z,39.70
2019-04-24T18:35:32.122Z,39.80
2019-04-24T18:38:06.734Z,39.80
2019-04-24T18:40:23.235Z,41.40
2019-04-24T18:42:50.979Z,40.20
2019-04-24T18:45:16.432Z,39.90
2019-04-24T18:47:41.846Z,41.00
2019-04-24T18:50:07.998Z,40.70
2019-04-24T18:52:34.180Z,40.30
2019-04-24T18:55:00.339Z,40.20
2019-04-24T18:57:26.513Z,40.00
2019-04-24T18:59:52.672Z,40.20
2019-04-24T19:02:18.864Z,40.90
2019-04-24T19:04:45.022Z,40.20
2019-04-24T19:07:11.192Z,40.10
2019-04-24T19:09:37.360Z,40.10
2019-04-24T19:12:03.588Z,40.20
2019-04-24T19:14:31.075Z,40.10
2019-04-24T19:16:55.982Z,40.20
2019-04-24T19:19:22.149Z,40.20
2019-04-24T19:21:48.301Z,40.20
2019-04-24T19:24:14.475Z,40.30
2019-04-24T19:26:41.712Z,40.20
2019-04-24T19:29:06.860Z,40.30
2019-04-24T19:31:33.020Z,40.20
2019-04-24T19:33:59.178Z,40.20
2019-04-24T19:36:26.093Z,40.90
2019-04-24T19:38:52.278Z,40.20
2019-04-24T19:41:18.856Z,40.10
2019-04-24T19:43:45.029Z,40.10
2019-04-24T19:46:15.459Z,40.10
2019-04-24T19:48:37.400Z,40.10
2019-04-24T19:51:03.549Z,40.10
2019-04-24T19:53:29.725Z,40.10
2019-04-24T19:55:55.885Z,40.10
2019-04-24T19:58:23.048Z,40.10
2019-04-24T20:00:48.258Z,40.10
2019-04-24T20:03:15.416Z,40.10
2019-04-24T20:05:42.125Z,40.10
2019-04-24T20:08:06.847Z,40.00
2019-04-24T20:10:33.017Z,39.90
2019-04-24T20:12:59.208Z,39.90
2019-04-24T20:15:25.389Z,40.00
2019-04-24T20:17:53.424Z,40.00
2019-04-24T20:20:17.755Z,39.90
2019-04-24T20:22:44.081Z,40.00
2019-04-24T20:25:11.122Z,40.00
2019-04-24T20:27:36.468Z,40.00
2019-04-24T20:30:03.051Z,40.00
2019-04-24T20:32:28.848Z,40.00
2019-04-24T20:34:55.025Z,39.90
2019-04-24T20:37:21.184Z,39.90
2019-04-24T20:39:47.368Z,40.00
2019-04-24T20:42:13.528Z,40.00
2019-04-24T20:44:39.687Z,40.00
2019-04-24T20:47:05.840Z,40.00
2019-04-24T20:49:32.011Z,40.00
2019-04-24T20:51:58.160Z,40.00
2019-04-24T20:54:24.832Z,40.00
2019-04-24T20:56:51.724Z,40.00
2019-04-24T20:59:17.770Z,40.00
2019-04-24T21:01:42.962Z,40.00
2019-04-24T21:04:09.901Z,39.90
2019-04-24T21:06:36.078Z,39.90
2019-04-24T21:09:02.269Z,39.90
2019-04-24T21:11:29.072Z,40.00
2019-04-24T21:13:54.679Z,39.90
2019-04-24T21:16:22.486Z,39.80
2019-04-24T21:18:47.025Z,39.90
2019-04-24T21:21:13.176Z,39.80
2019-04-24T21:23:51.560Z,40.60
2019-04-24T21:26:06.287Z,39.80
2019-04-24T21:28:33.268Z,40.00
2019-04-24T21:30:58.726Z,39.90
2019-04-24T21:33:25.479Z,39.80
2019-04-24T21:35:52.253Z,40.10
2019-04-24T21:38:17.302Z,39.80
2019-04-24T21:40:43.469Z,39.80
2019-04-24T21:43:09.632Z,39.80
2019-04-24T21:45:37.305Z,39.80
2019-04-24T21:48:03.575Z,39.70
2019-04-24T21:50:32.140Z,39.80
2019-04-24T21:52:56.386Z,39.90
2019-04-24T21:55:23.185Z,39.90
2019-04-24T21:57:48.745Z,39.90
2019-04-24T22:00:14.898Z,39.80
2019-04-24T22:02:41.682Z,39.80
2019-04-24T22:05:08.021Z,39.80
2019-04-24T22:07:36.880Z,39.80
2019-04-24T22:10:01.613Z,39.70
2019-04-24T22:12:26.650Z,39.90
2019-04-24T22:14:52.813Z,39.90
2019-04-24T22:17:19.606Z,39.80
2019-04-24T22:19:45.764Z,39.80
2019-04-24T22:22:11.942Z,39.80
2019-04-24T22:24:38.248Z,40.40
2019-04-24T22:27:04.422Z,39.80
2019-04-24T22:29:30.900Z,39.80
2019-04-24T22:31:56.829Z,39.70
2019-04-24T22:34:23.001Z,39.70
2019-04-24T22:36:49.209Z,39.60
2019-04-24T22:39:15.361Z,39.60
2019-04-24T22:41:41.533Z,39.50
2019-04-24T22:44:07.694Z,39.50
2019-04-24T22:46:34.418Z,39.50
2019-04-24T22:49:01.410Z,39.60
2019-04-24T22:51:26.220Z,39.50
2019-04-24T22:53:52.376Z,39.50
2019-04-24T22:56:18.533Z,39.40
2019-04-24T22:58:44.727Z,39.30
2019-04-24T23:01:11.653Z,39.60
2019-04-24T23:03:37.829Z,39.60
2019-04-24T23:06:03.993Z,39.50
2019-04-24T23:08:32.305Z,39.30
2019-04-24T23:10:56.356Z,39.20
2019-04-24T23:13:22.506Z,39.30
2019-04-24T23:15:49.422Z,39.20
2019-04-24T23:18:15.573Z,39.20
2019-04-24T23:20:43.487Z,39.10
2019-04-24T23:23:08.705Z,39.10
2019-04-24T23:25:34.882Z,39.10
2019-04-24T23:28:01.663Z,39.10
2019-04-24T23:30:27.260Z,39.00
2019-04-24T23:32:53.413Z,39.10
2019-04-24T23:35:19.594Z,39.00
2019-04-24T23:37:45.769Z,39.00
2019-04-24T23:40:11.928Z,39.00
2019-04-24T23:42:38.329Z,39.00
2019-04-24T23:45:04.324Z,39.00
2019-04-24T23:47:31.117Z,38.90
2019-04-24T23:49:56.709Z,39.60
2019-04-24T23:52:23.661Z,38.70
2019-04-24T23:55:02.536Z,38.80
2019-04-24T23:57:16.020Z,38.80
2019-04-24T23:59:44.550Z,38.80
